Eems Servant — PBTI — position and weather

sailwx.info

Track history (hours):
 
Tides and Currents Weather Stations Pressure Air Temp Water Temp Dewpoint Dewpoint Depression Visibility Wind Speed Wind Dir Waves Ship Positions

Eems Servant

Last reported at 2017-Jan-17 08:34 UTC. Time now 2017-Jan-17 08:53 UTC.
Position N 52°28' E 004°36'.

Length 87 m; draft 3.1 m.

Type: Cargo ship. MMSI: 246236000.

Date/timePositionNaut miles runAvg speedWind from/ knotsBaromVisibWave heightAir tempDewpointWater temp
2017-Jan-17 08:34N 52°28' E 004°36'0 0.0
2017-Jan-17 07:31N 52°28' E 004°36'0 0.0
2017-Jan-17 06:31N 52°28' E 004°36'0 0.0
2017-Jan-17 05:34N 52°28' E 004°36'0 0.0
2017-Jan-17 04:31N 52°28' E 004°36'0 0.0
2017-Jan-17 03:34N 52°28' E 004°36'0 0.0
2017-Jan-17 02:31N 52°28' E 004°36'0 0.0
2017-Jan-17 01:34N 52°28' E 004°36'0 0.0
2017-Jan-17 00:34N 52°28' E 004°36'0 0.0
2017-Jan-16 23:28N 52°28' E 004°36'0 0.0
2017-Jan-16 22:31N 52°28' E 004°36'0 0.0
2017-Jan-16 21:34N 52°28' E 004°36'0 0.0
2017-Jan-16 20:34N 52°28' E 004°36'0 0.0
2017-Jan-16 19:34N 52°28' E 004°36'0 0.0
2017-Jan-16 18:34N 52°28' E 004°36'0 0.0
2017-Jan-16 17:34N 52°28' E 004°36'0 0.0
2017-Jan-16 16:34N 52°28' E 004°36'0 0.0
2017-Jan-16 15:34N 52°28' E 004°36'0 0.0
2017-Jan-16 14:31N 52°28' E 004°36'0 0.0
2017-Jan-16 13:34N 52°28' E 004°36'0 0.0
2017-Jan-16 12:34N 52°28' E 004°36'0 0.0
2017-Jan-16 11:34N 52°28' E 004°36'0 0.0
2017-Jan-16 10:34N 52°28' E 004°36'0 0.0
2017-Jan-16 09:31N 52°28' E 004°36'0 0.0
2017-Jan-16 08:34N 52°28' E 004°36'0 0.0
2017-Jan-16 07:34N 52°28' E 004°36'0 0.0
2017-Jan-16 06:34N 52°28' E 004°36'0 0.0
2017-Jan-16 05:31N 52°28' E 004°36'0 0.0
2017-Jan-16 04:31N 52°28' E 004°36'0 0.0
2017-Jan-16 03:34N 52°28' E 004°36'0 0.0
2017-Jan-16 02:34N 52°28' E 004°36'0 0.0
2017-Jan-16 01:33N 52°28' E 004°36'0 0.0
2017-Jan-16 00:34N 52°28' E 004°36'0 0.0
2017-Jan-15 23:33N 52°28' E 004°36'0 0.0
2017-Jan-15 22:33N 52°28' E 004°36'0 0.0
2017-Jan-15 21:33N 52°28' E 004°36'0 0.0
2017-Jan-15 20:30N 52°28' E 004°36'0 0.0
2017-Jan-15 19:33N 52°28' E 004°36'4 3.8
2017-Jan-15 18:33N 52°28' E 004°30'9 9.4
2017-Jan-15 17:33N 52°29' E 004°15'94 9.4
2017-Jan-15 07:32N 52°59' E 001°47'9 9.7
2017-Jan-15 06:33N 53°04' E 001°34'66 8.1
2017-Jan-14 22:19N 53°36' W 000°04'1013.0
2017-Jan-14 21:33N 53°43' W 000°15'  
2017-Jan-12 16:12N 53°42' W 000°27'710.5
2017-Jan-12 15:33N 53°44' W 000°16'10 9.6
2017-Jan-12 14:33N 53°37' W 000°05'59 8.2
2017-Jan-12 07:19N 53°00' E 001°13'5 6.4
2017-Jan-12 06:33N 52°58' E 001°21'6 5.9
2017-Jan-12 05:33N 52°56' E 001°29'7 6.9
2017-Jan-12 04:33N 52°50' E 001°37'4210.4
2017-Jan-12 00:33N 52°10' E 001°51'1110.5
2017-Jan-11 23:33N 51°59' E 001°50'9 8.9
2017-Jan-11 22:33N 51°50' E 001°48'8 7.7
2017-Jan-11 21:34N 51°43' E 001°49'7 6.8
2017-Jan-11 20:34N 51°36' E 001°49'7 6.5
2017-Jan-11 19:33N 51°29' E 001°47'6 5.8
2017-Jan-11 18:33N 51°24' E 001°46'6 6.2
2017-Jan-11 17:33N 51°18' E 001°42'7 7.2
2017-Jan-11 16:33N 51°11' E 001°38'8 7.6
2017-Jan-11 15:33N 51°05' E 001°43'9 8.6
2017-Jan-11 14:33N 51°03' E 001°57'8 8.2
2017-Jan-11 13:33N 51°03' E 002°10'7 6.6
2017-Jan-11 12:32N 51°03' E 002°21'3 1.5
2017-Jan-11 10:25N 51°02' E 002°16'0 0.0
2017-Jan-10 07:04N 51°02' E 002°16'0 0.0
2017-Jan-10 06:31N 51°02' E 002°16'0 0.0
2017-Jan-10 04:29N 51°02' E 002°16'4 2.8
2017-Jan-10 03:07N 51°03' E 002°22'4 7.4
2017-Jan-10 02:33N 51°04' E 002°15'10 8.5
2017-Jan-10 01:24N 51°02' E 001°60'7 8.7
2017-Jan-10 00:33N 51°03' E 001°48'2020.3
2017-Jan-09 23:33N 51°24' E 001°48'2 2.3
2017-Jan-09 22:33N 51°26' E 001°47'3 2.5
2017-Jan-09 21:33N 51°28' E 001°47'3 3.0
2017-Jan-09 20:33N 51°31' E 001°46'8 8.1
2017-Jan-09 19:33N 51°39' E 001°45'1010.5
2017-Jan-09 18:34N 51°50' E 001°43'1111.3
2017-Jan-09 17:33N 52°01' E 001°46'1111.3
2017-Jan-09 16:33N 52°12' E 001°48'32 9.6
2017-Jan-09 13:15N 52°44' E 001°46'6 8.9
2017-Jan-09 12:34N 52°48' E 001°39'8 8.3
2017-Jan-09 11:34N 52°55' E 001°30'8 8.1
2017-Jan-09 10:33N 52°59' E 001°18'62 8.7
2017-Jan-09 03:30N 53°36' W 000°04'9 9.6
2017-Jan-09 02:33N 53°43' W 000°15'4 4.4
2017-Jan-09 01:33N 53°43' W 000°22'0 0.0
2017-Jan-09 00:33N 53°43' W 000°22'0 0.0
2017-Jan-08 23:30N 53°43' W 000°22'0 0.0
2017-Jan-08 22:33N 53°43' W 000°22'0 0.0
2017-Jan-08 21:33N 53°43' W 000°22'0 0.0
2017-Jan-08 20:33N 53°43' W 000°22'0 0.0
2017-Jan-08 19:33N 53°43' W 000°22'0 0.0
2017-Jan-08 18:33N 53°43' W 000°22'0 0.0
2017-Jan-08 17:33N 53°43' W 000°22'0 0.0
2017-Jan-08 16:27N 53°43' W 000°22'0 0.0
2017-Jan-08 15:33N 53°43' W 000°22'0 0.0
2017-Jan-08 14:33N 53°43' W 000°22'0 0.0
2017-Jan-08 13:33N 53°43' W 000°22'0 0.0
2017-Jan-08 12:30N 53°43' W 000°22'0 0.0
2017-Jan-08 11:33N 53°43' W 000°22'0 0.0
2017-Jan-08 10:21N 53°43' W 000°22'0 0.0
2017-Jan-08 09:30N 53°43' W 000°22'0 0.0
2017-Jan-08 08:33N 53°43' W 000°22'0 0.0
2017-Jan-08 07:33N 53°43' W 000°22'0 0.0
2017-Jan-08 06:33N 53°43' W 000°22'0 0.0
2017-Jan-08 05:33N 53°43' W 000°22'0 0.0
2017-Jan-08 04:33N 53°43' W 000°22'0 0.0
2017-Jan-08 03:33N 53°43' W 000°22'0 0.0
2017-Jan-08 02:33N 53°43' W 000°22'0 0.0
2017-Jan-08 01:33N 53°43' W 000°22'0 0.0
2017-Jan-08 00:33N 53°43' W 000°22'0 0.0
2017-Jan-07 23:33N 53°43' W 000°22'0 0.0
2017-Jan-07 22:33N 53°43' W 000°22'0 0.0
2017-Jan-07 21:33N 53°43' W 000°22'0 0.0
2017-Jan-07 20:33N 53°43' W 000°22'0 0.0
2017-Jan-07 19:33N 53°43' W 000°22'0 0.0
2017-Jan-07 18:33N 53°43' W 000°22'0 0.0
2017-Jan-07 17:33N 53°43' W 000°22'0 0.0
2017-Jan-07 16:33N 53°43' W 000°22'0 0.0
2017-Jan-07 15:33N 53°43' W 000°22'0 0.0
2017-Jan-07 14:33N 53°43' W 000°22'0 0.0
2017-Jan-07 13:33N 53°43' W 000°22'0 0.0
2017-Jan-07 12:33N 53°43' W 000°22'0 0.0
2017-Jan-07 11:33N 53°43' W 000°22'0 0.0
2017-Jan-07 10:33N 53°43' W 000°22'0 0.0
2017-Jan-07 09:33N 53°43' W 000°22'  
Track history (hours):
 
Tides and Currents Weather Stations Pressure Air Temp Water Temp Dewpoint Dewpoint Depression Visibility Wind Speed Wind Dir Waves Ship Positions

Eems Servant

Last reported at 2017-Jan-17 08:34 UTC. Time now 2017-Jan-17 08:53 UTC.
Position N 52°28' E 004°36'.

Length 87 m; draft 3.1 m.

Type: Cargo ship. MMSI: 246236000.

Date/timePositionNaut miles runAvg speedWind from/ knotsBaromVisibWave heightAir tempDewpointWater temp
2017-Jan-17 08:34N 52°28' E 004°36'0 0.0
2017-Jan-17 07:31N 52°28' E 004°36'0 0.0
2017-Jan-17 06:31N 52°28' E 004°36'0 0.0
2017-Jan-17 05:34N 52°28' E 004°36'0 0.0
2017-Jan-17 04:31N 52°28' E 004°36'0 0.0
2017-Jan-17 03:34N 52°28' E 004°36'0 0.0
2017-Jan-17 02:31N 52°28' E 004°36'0 0.0
2017-Jan-17 01:34N 52°28' E 004°36'0 0.0
2017-Jan-17 00:34N 52°28' E 004°36'0 0.0
2017-Jan-16 23:28N 52°28' E 004°36'0 0.0
2017-Jan-16 22:31N 52°28' E 004°36'0 0.0
2017-Jan-16 21:34N 52°28' E 004°36'0 0.0
2017-Jan-16 20:34N 52°28' E 004°36'0 0.0
2017-Jan-16 19:34N 52°28' E 004°36'0 0.0
2017-Jan-16 18:34N 52°28' E 004°36'0 0.0
2017-Jan-16 17:34N 52°28' E 004°36'0 0.0
2017-Jan-16 16:34N 52°28' E 004°36'0 0.0
2017-Jan-16 15:34N 52°28' E 004°36'0 0.0
2017-Jan-16 14:31N 52°28' E 004°36'0 0.0
2017-Jan-16 13:34N 52°28' E 004°36'0 0.0
2017-Jan-16 12:34N 52°28' E 004°36'0 0.0
2017-Jan-16 11:34N 52°28' E 004°36'0 0.0
2017-Jan-16 10:34N 52°28' E 004°36'0 0.0
2017-Jan-16 09:31N 52°28' E 004°36'0 0.0
2017-Jan-16 08:34N 52°28' E 004°36'0 0.0
2017-Jan-16 07:34N 52°28' E 004°36'0 0.0
2017-Jan-16 06:34N 52°28' E 004°36'0 0.0
2017-Jan-16 05:31N 52°28' E 004°36'0 0.0
2017-Jan-16 04:31N 52°28' E 004°36'0 0.0
2017-Jan-16 03:34N 52°28' E 004°36'0 0.0
2017-Jan-16 02:34N 52°28' E 004°36'0 0.0
2017-Jan-16 01:33N 52°28' E 004°36'0 0.0
2017-Jan-16 00:34N 52°28' E 004°36'0 0.0
2017-Jan-15 23:33N 52°28' E 004°36'0 0.0
2017-Jan-15 22:33N 52°28' E 004°36'0 0.0
2017-Jan-15 21:33N 52°28' E 004°36'0 0.0
2017-Jan-15 20:30N 52°28' E 004°36'0 0.0
2017-Jan-15 19:33N 52°28' E 004°36'4 3.8
2017-Jan-15 18:33N 52°28' E 004°30'9 9.4
2017-Jan-15 17:33N 52°29' E 004°15'94 9.4
2017-Jan-15 07:32N 52°59' E 001°47'9 9.7
2017-Jan-15 06:33N 53°04' E 001°34'66 8.1
2017-Jan-14 22:19N 53°36' W 000°04'1013.0
2017-Jan-14 21:33N 53°43' W 000°15'  
2017-Jan-12 16:12N 53°42' W 000°27'710.5
2017-Jan-12 15:33N 53°44' W 000°16'10 9.6
2017-Jan-12 14:33N 53°37' W 000°05'59 8.2
2017-Jan-12 07:19N 53°00' E 001°13'5 6.4
2017-Jan-12 06:33N 52°58' E 001°21'6 5.9
2017-Jan-12 05:33N 52°56' E 001°29'7 6.9
2017-Jan-12 04:33N 52°50' E 001°37'4210.4
2017-Jan-12 00:33N 52°10' E 001°51'1110.5
2017-Jan-11 23:33N 51°59' E 001°50'9 8.9
2017-Jan-11 22:33N 51°50' E 001°48'8 7.7
2017-Jan-11 21:34N 51°43' E 001°49'7 6.8
2017-Jan-11 20:34N 51°36' E 001°49'7 6.5
2017-Jan-11 19:33N 51°29' E 001°47'6 5.8
2017-Jan-11 18:33N 51°24' E 001°46'6 6.2
2017-Jan-11 17:33N 51°18' E 001°42'7 7.2
2017-Jan-11 16:33N 51°11' E 001°38'8 7.6
2017-Jan-11 15:33N 51°05' E 001°43'9 8.6
2017-Jan-11 14:33N 51°03' E 001°57'8 8.2
2017-Jan-11 13:33N 51°03' E 002°10'7 6.6
2017-Jan-11 12:32N 51°03' E 002°21'3 1.5
2017-Jan-11 10:25N 51°02' E 002°16'0 0.0
2017-Jan-10 07:04N 51°02' E 002°16'0 0.0
2017-Jan-10 06:31N 51°02' E 002°16'0 0.0
2017-Jan-10 04:29N 51°02' E 002°16'4 2.8
2017-Jan-10 03:07N 51°03' E 002°22'4 7.4
2017-Jan-10 02:33N 51°04' E 002°15'10 8.5
2017-Jan-10 01:24N 51°02' E 001°60'7 8.7
2017-Jan-10 00:33N 51°03' E 001°48'2020.3
2017-Jan-09 23:33N 51°24' E 001°48'2 2.3
2017-Jan-09 22:33N 51°26' E 001°47'3 2.5
2017-Jan-09 21:33N 51°28' E 001°47'3 3.0
2017-Jan-09 20:33N 51°31' E 001°46'8 8.1
2017-Jan-09 19:33N 51°39' E 001°45'1010.5
2017-Jan-09 18:34N 51°50' E 001°43'1111.3
2017-Jan-09 17:33N 52°01' E 001°46'1111.3
2017-Jan-09 16:33N 52°12' E 001°48'32 9.6
2017-Jan-09 13:15N 52°44' E 001°46'6 8.9
2017-Jan-09 12:34N 52°48' E 001°39'8 8.3
2017-Jan-09 11:34N 52°55' E 001°30'8 8.1
2017-Jan-09 10:33N 52°59' E 001°18'62 8.7
2017-Jan-09 03:30N 53°36' W 000°04'9 9.6
2017-Jan-09 02:33N 53°43' W 000°15'4 4.4
2017-Jan-09 01:33N 53°43' W 000°22'0 0.0
2017-Jan-09 00:33N 53°43' W 000°22'0 0.0
2017-Jan-08 23:30N 53°43' W 000°22'0 0.0
2017-Jan-08 22:33N 53°43' W 000°22'0 0.0
2017-Jan-08 21:33N 53°43' W 000°22'0 0.0
2017-Jan-08 20:33N 53°43' W 000°22'0 0.0
2017-Jan-08 19:33N 53°43' W 000°22'0 0.0
2017-Jan-08 18:33N 53°43' W 000°22'0 0.0
2017-Jan-08 17:33N 53°43' W 000°22'0 0.0
2017-Jan-08 16:27N 53°43' W 000°22'0 0.0
2017-Jan-08 15:33N 53°43' W 000°22'0 0.0
2017-Jan-08 14:33N 53°43' W 000°22'0 0.0
2017-Jan-08 13:33N 53°43' W 000°22'0 0.0
2017-Jan-08 12:30N 53°43' W 000°22'0 0.0
2017-Jan-08 11:33N 53°43' W 000°22'0 0.0
2017-Jan-08 10:21N 53°43' W 000°22'0 0.0
2017-Jan-08 09:30N 53°43' W 000°22'0 0.0
2017-Jan-08 08:33N 53°43' W 000°22'0 0.0
2017-Jan-08 07:33N 53°43' W 000°22'0 0.0
2017-Jan-08 06:33N 53°43' W 000°22'0 0.0
2017-Jan-08 05:33N 53°43' W 000°22'0 0.0
2017-Jan-08 04:33N 53°43' W 000°22'0 0.0
2017-Jan-08 03:33N 53°43' W 000°22'0 0.0
2017-Jan-08 02:33N 53°43' W 000°22'0 0.0
2017-Jan-08 01:33N 53°43' W 000°22'0 0.0
2017-Jan-08 00:33N 53°43' W 000°22'0 0.0
2017-Jan-07 23:33N 53°43' W 000°22'0 0.0
2017-Jan-07 22:33N 53°43' W 000°22'0 0.0
2017-Jan-07 21:33N 53°43' W 000°22'0 0.0
2017-Jan-07 20:33N 53°43' W 000°22'0 0.0
2017-Jan-07 19:33N 53°43' W 000°22'0 0.0
2017-Jan-07 18:33N 53°43' W 000°22'0 0.0
2017-Jan-07 17:33N 53°43' W 000°22'0 0.0
2017-Jan-07 16:33N 53°43' W 000°22'0 0.0
2017-Jan-07 15:33N 53°43' W 000°22'0 0.0
2017-Jan-07 14:33N 53°43' W 000°22'0 0.0
2017-Jan-07 13:33N 53°43' W 000°22'0 0.0
2017-Jan-07 12:33N 53°43' W 000°22'0 0.0
2017-Jan-07 11:33N 53°43' W 000°22'0 0.0
2017-Jan-07 10:33N 53°43' W 000°22'0 0.0
2017-Jan-07 09:33N 53°43' W 000°22'  

Dump ship's entire track history